sensor_id;sensor_type;location;lat;lon;timestamp;temperature;humidity
36816;DHT22;71982;52.294;6.760;2024-01-10T00:01:32;-4.40;99.90
36816;DHT22;71982;52.294;6.760;2024-01-10T00:03:58;-4.40;99.90
36816;DHT22;71982;52.294;6.760;2024-01-10T00:06:25;-4.40;99.90
36816;DHT22;71982;52.294;6.760;2024-01-10T00:08:53;-4.50;99.90
36816;DHT22;71982;52.294;6.760;2024-01-10T00:11:20;-4.50;99.90
36816;DHT22;71982;52.294;6.760;2024-01-10T00:13:47;-4.50;99.90
36816;DHT22;71982;52.294;6.760;2024-01-10T00:16:14;-4.50;99.90
36816;DHT22;71982;52.294;6.760;2024-01-10T00:18:41;-4.50;99.90
36816;DHT22;71982;52.294;6.760;2024-01-10T00:21:08;-4.50;99.90
36816;DHT22;71982;52.294;6.760;2024-01-10T00:23:35;-4.50;99.90
36816;DHT22;71982;52.294;6.760;2024-01-10T00:26:04;-4.50;99.90
36816;DHT22;71982;52.294;6.760;2024-01-10T00:28:30;-4.50;99.90
36816;DHT22;71982;52.294;6.760;2024-01-10T00:30:57;-4.60;99.90
36816;DHT22;71982;52.294;6.760;2024-01-10T00:33:24;-4.60;99.90
36816;DHT22;71982;52.294;6.760;2024-01-10T00:35:50;-4.70;99.90
36816;DHT22;71982;52.294;6.760;2024-01-10T00:38:17;-4.70;99.90
36816;DHT22;71982;52.294;6.760;2024-01-10T00:40:44;-4.70;99.90
36816;DHT22;71982;52.294;6.760;2024-01-10T00:43:12;-4.60;99.90
36816;DHT22;71982;52.294;6.760;2024-01-10T00:45:39;-4.70;99.90
36816;DHT22;71982;52.294;6.760;2024-01-10T00:48:06;-4.80;99.90
36816;DHT22;71982;52.294;6.760;2024-01-10T00:50:33;-4.70;99.90
36816;DHT22;71982;52.294;6.760;2024-01-10T00:52:59;-4.80;99.90
36816;DHT22;71982;52.294;6.760;2024-01-10T00:55:26;-4.80;99.90
36816;DHT22;71982;52.294;6.760;2024-01-10T00:57:53;-4.80;99.90
36816;DHT22;71982;52.294;6.760;2024-01-10T01:00:21;-4.80;99.90
36816;DHT22;71982;52.294;6.760;2024-01-10T01:02:48;-4.80;99.90
36816;DHT22;71982;52.294;6.760;2024-01-10T01:05:15;-4.80;99.90
36816;DHT22;71982;52.294;6.760;2024-01-10T01:07:41;-4.80;99.90
36816;DHT22;71982;52.294;6.760;2024-01-10T01:10:08;-4.80;99.90
36816;DHT22;71982;52.294;6.760;2024-01-10T01:12:35;-4.70;99.90
36816;DHT22;71982;52.294;6.760;2024-01-10T01:15:03;-4.80;99.90
36816;DHT22;71982;52.294;6.760;2024-01-10T01:17:32;-4.80;99.90
36816;DHT22;71982;52.294;6.760;2024-01-10T01:19:59;-4.80;99.90
36816;DHT22;71982;52.294;6.760;2024-01-10T01:22:26;-4.80;99.90
36816;DHT22;71982;52.294;6.760;2024-01-10T01:24:53;-4.80;99.90
36816;DHT22;71982;52.294;6.760;2024-01-10T01:27:19;-4.80;99.90
36816;DHT22;71982;52.294;6.760;2024-01-10T01:29:46;-4.80;99.90
36816;DHT22;71982;52.294;6.760;2024-01-10T01:32:13;-4.70;99.90
36816;DHT22;71982;52.294;6.760;2024-01-10T01:34:41;-4.70;99.90
36816;DHT22;71982;52.294;6.760;2024-01-10T01:37:08;-4.70;99.90
36816;DHT22;71982;52.294;6.760;2024-01-10T01:39:35;-4.60;99.90
36816;DHT22;71982;52.294;6.760;2024-01-10T01:42:01;-4.70;99.90
36816;DHT22;71982;52.294;6.760;2024-01-10T01:44:29;-4.70;99.90
36816;DHT22;71982;52.294;6.760;2024-01-10T01:46:57;-4.70;99.90
36816;DHT22;71982;52.294;6.760;2024-01-10T01:49:24;-4.60;99.90
36816;DHT22;71982;52.294;6.760;2024-01-10T01:51:53;-4.60;99.90
36816;DHT22;71982;52.294;6.760;2024-01-10T01:54:20;-4.70;99.90
36816;DHT22;71982;52.294;6.760;2024-01-10T01:56:47;-4.70;99.90
36816;DHT22;71982;52.294;6.760;2024-01-10T01:59:14;-4.80;99.90
36816;DHT22;71982;52.294;6.760;2024-01-10T02:01:41;-4.80;99.90
36816;DHT22;71982;52.294;6.760;2024-01-10T02:04:08;-4.80;99.90
36816;DHT22;71982;52.294;6.760;2024-01-10T02:06:35;-4.80;99.90
36816;DHT22;71982;52.294;6.760;2024-01-10T02:09:03;-4.70;99.90
36816;DHT22;71982;52.294;6.760;2024-01-10T02:11:30;-4.70;99.90
36816;DHT22;71982;52.294;6.760;2024-01-10T02:13:57;-4.80;99.90
36816;DHT22;71982;52.294;6.760;2024-01-10T02:16:24;-4.80;99.90
36816;DHT22;71982;52.294;6.760;2024-01-10T02:18:51;-4.80;99.90
36816;DHT22;71982;52.294;6.760;2024-01-10T02:21:20;-4.80;99.90
36816;DHT22;71982;52.294;6.760;2024-01-10T02:23:48;-4.90;99.90
36816;DHT22;71982;52.294;6.760;2024-01-10T02:26:16;-4.90;99.90
36816;DHT22;71982;52.294;6.760;2024-01-10T02:28:43;-4.90;99.90
36816;DHT22;71982;52.294;6.760;2024-01-10T02:31:10;-4.90;99.90
36816;DHT22;71982;52.294;6.760;2024-01-10T02:33:36;-4.80;99.90
36816;DHT22;71982;52.294;6.760;2024-01-10T02:36:04;-4.80;99.90
36816;DHT22;71982;52.294;6.760;2024-01-10T02:38:31;-4.80;99.90
36816;DHT22;71982;52.294;6.760;2024-01-10T02:40:58;-4.90;99.90
36816;DHT22;71982;52.294;6.760;2024-01-10T02:43:27;-4.90;99.90
36816;DHT22;71982;52.294;6.760;2024-01-10T02:45:54;-4.90;99.90
36816;DHT22;71982;52.294;6.760;2024-01-10T02:48:20;-4.90;99.90
36816;DHT22;71982;52.294;6.760;2024-01-10T02:50:47;-4.90;99.90
36816;DHT22;71982;52.294;6.760;2024-01-10T02:53:14;-4.90;99.90
36816;DHT22;71982;52.294;6.760;2024-01-10T02:55:41;-4.90;99.90
36816;DHT22;71982;52.294;6.760;2024-01-10T02:58:08;-5.00;99.90
36816;DHT22;71982;52.294;6.760;2024-01-10T03:00:36;-4.90;99.90
36816;DHT22;71982;52.294;6.760;2024-01-10T03:03:03;-4.90;99.90
36816;DHT22;71982;52.294;6.760;2024-01-10T03:05:30;-4.90;99.90
36816;DHT22;71982;52.294;6.760;2024-01-10T03:07:57;-5.00;99.90
36816;DHT22;71982;52.294;6.760;2024-01-10T03:10:24;-5.00;99.90
36816;DHT22;71982;52.294;6.760;2024-01-10T03:12:50;-4.90;99.90
36816;DHT22;71982;52.294;6.760;2024-01-10T03:15:17;-4.90;99.90
36816;DHT22;71982;52.294;6.760;2024-01-10T03:17:45;-5.00;99.90
36816;DHT22;71982;52.294;6.760;2024-01-10T03:20:12;-5.00;99.90
36816;DHT22;71982;52.294;6.760;2024-01-10T03:22:39;-5.00;99.90
36816;DHT22;71982;52.294;6.760;2024-01-10T03:25:06;-4.90;99.90
36816;DHT22;71982;52.294;6.760;2024-01-10T03:27:33;-5.00;99.90
36816;DHT22;71982;52.294;6.760;2024-01-10T03:30:00;-5.00;99.90
36816;DHT22;71982;52.294;6.760;2024-01-10T03:32:27;-5.00;99.90
36816;DHT22;71982;52.294;6.760;2024-01-10T03:34:55;-4.90;99.90
36816;DHT22;71982;52.294;6.760;2024-01-10T03:37:21;-4.90;99.90
36816;DHT22;71982;52.294;6.760;2024-01-10T03:39:48;-4.90;99.90
36816;DHT22;71982;52.294;6.760;2024-01-10T03:42:15;-4.90;99.90
36816;DHT22;71982;52.294;6.760;2024-01-10T03:44:42;-4.90;99.90
36816;DHT22;71982;52.294;6.760;2024-01-10T03:47:08;-4.90;99.90
36816;DHT22;71982;52.294;6.760;2024-01-10T03:49:35;-4.90;99.90
36816;DHT22;71982;52.294;6.760;2024-01-10T03:52:04;-4.90;99.90
36816;DHT22;71982;52.294;6.760;2024-01-10T03:54:31;-5.00;99.90
36816;DHT22;71982;52.294;6.760;2024-01-10T03:56:59;-5.00;99.90
36816;DHT22;71982;52.294;6.760;2024-01-10T03:59:26;-5.00;99.90
36816;DHT22;71982;52.294;6.760;2024-01-10T04:01:52;-5.00;99.90
36816;DHT22;71982;52.294;6.760;2024-01-10T04:04:19;-4.90;99.90
36816;DHT22;71982;52.294;6.760;2024-01-10T04:06:46;-4.90;99.90
36816;DHT22;71982;52.294;6.760;2024-01-10T04:09:14;-4.90;99.90
36816;DHT22;71982;52.294;6.760;2024-01-10T04:11:41;-4.90;99.90
36816;DHT22;71982;52.294;6.760;2024-01-10T04:14:08;-5.00;99.90
36816;DHT22;71982;52.294;6.760;2024-01-10T04:16:35;-5.00;99.90
36816;DHT22;71982;52.294;6.760;2024-01-10T04:19:02;-5.00;99.90
36816;DHT22;71982;52.294;6.760;2024-01-10T04:21:28;-5.10;99.90
36816;DHT22;71982;52.294;6.760;2024-01-10T04:23:55;-5.00;99.90
36816;DHT22;71982;52.294;6.760;2024-01-10T04:26:23;-5.00;99.90
36816;DHT22;71982;52.294;6.760;2024-01-10T04:28:50;-5.00;99.90
36816;DHT22;71982;52.294;6.760;2024-01-10T04:31:17;-5.00;99.90
36816;DHT22;71982;52.294;6.760;2024-01-10T04:33:44;-4.90;99.90
36816;DHT22;71982;52.294;6.760;2024-01-10T04:36:11;-4.90;99.90
36816;DHT22;71982;52.294;6.760;2024-01-10T04:38:37;-5.00;99.90
36816;DHT22;71982;52.294;6.760;2024-01-10T04:41:04;-5.00;99.90
36816;DHT22;71982;52.294;6.760;2024-01-10T04:43:32;-5.00;99.90
36816;DHT22;71982;52.294;6.760;2024-01-10T04:45:59;-5.00;99.90
36816;DHT22;71982;52.294;6.760;2024-01-10T04:48:26;-5.00;99.90
36816;DHT22;71982;52.294;6.760;2024-01-10T04:50:53;-5.00;99.90
36816;DHT22;71982;52.294;6.760;2024-01-10T04:53:19;-5.00;99.90
36816;DHT22;71982;52.294;6.760;2024-01-10T04:55:46;-5.00;99.90
36816;DHT22;71982;52.294;6.760;2024-01-10T04:58:13;-5.00;99.90
36816;DHT22;71982;52.294;6.760;2024-01-10T05:00:41;-5.00;99.90
36816;DHT22;71982;52.294;6.760;2024-01-10T05:03:08;-5.00;99.90
36816;DHT22;71982;52.294;6.760;2024-01-10T05:05:34;-5.00;99.90
36816;DHT22;71982;52.294;6.760;2024-01-10T05:08:01;-5.00;99.90
36816;DHT22;71982;52.294;6.760;2024-01-10T05:10:28;-5.00;99.90
36816;DHT22;71982;52.294;6.760;2024-01-10T05:12:55;-5.10;99.90
36816;DHT22;71982;52.294;6.760;2024-01-10T05:15:22;-5.10;99.90
36816;DHT22;71982;52.294;6.760;2024-01-10T05:17:50;-5.00;99.90
36816;DHT22;71982;52.294;6.760;2024-01-10T05:20:17;-5.00;99.90
36816;DHT22;71982;52.294;6.760;2024-01-10T05:22:44;-5.10;99.90
36816;DHT22;71982;52.294;6.760;2024-01-10T05:25:10;-5.10;99.90
36816;DHT22;71982;52.294;6.760;2024-01-10T05:27:38;-5.10;99.90
36816;DHT22;71982;52.294;6.760;2024-01-10T05:30:06;-5.20;99.90
36816;DHT22;71982;52.294;6.760;2024-01-10T05:32:33;-5.20;99.90
36816;DHT22;71982;52.294;6.760;2024-01-10T05:35:01;-5.20;99.90
36816;DHT22;71982;52.294;6.760;2024-01-10T05:37:27;-5.20;99.90
36816;DHT22;71982;52.294;6.760;2024-01-10T05:39:54;-5.20;99.90
36816;DHT22;71982;52.294;6.760;2024-01-10T05:42:21;-5.20;99.90
36816;DHT22;71982;52.294;6.760;2024-01-10T05:44:48;-5.30;99.90
36816;DHT22;71982;52.294;6.760;2024-01-10T05:47:14;-5.40;99.90
36816;DHT22;71982;52.294;6.760;2024-01-10T05:49:41;-5.40;99.90
36816;DHT22;71982;52.294;6.760;2024-01-10T05:52:10;-5.40;99.90
36816;DHT22;71982;52.294;6.760;2024-01-10T05:54:38;-5.40;99.90
36816;DHT22;71982;52.294;6.760;2024-01-10T05:57:04;-5.40;99.90
36816;DHT22;71982;52.294;6.760;2024-01-10T05:59:31;-5.40;99.90
36816;DHT22;71982;52.294;6.760;2024-01-10T06:01:58;-5.40;99.90
36816;DHT22;71982;52.294;6.760;2024-01-10T06:04:25;-5.30;99.90
36816;DHT22;71982;52.294;6.760;2024-01-10T06:06:53;-5.30;99.90
36816;DHT22;71982;52.294;6.760;2024-01-10T06:09:21;-5.30;99.90
36816;DHT22;71982;52.294;6.760;2024-01-10T06:11:48;-5.40;99.90
36816;DHT22;71982;52.294;6.760;2024-01-10T06:14:15;-5.30;99.90
36816;DHT22;71982;52.294;6.760;2024-01-10T06:16:42;-5.30;99.90
36816;DHT22;71982;52.294;6.760;2024-01-10T06:19:09;-5.20;99.90
36816;DHT22;71982;52.294;6.760;2024-01-10T06:21:36;-5.20;99.90
36816;DHT22;71982;52.294;6.760;2024-01-10T06:24:04;-5.20;99.90
36816;DHT22;71982;52.294;6.760;2024-01-10T06:26:32;-5.30;99.90
36816;DHT22;71982;52.294;6.760;2024-01-10T06:28:59;-5.30;99.90
36816;DHT22;71982;52.294;6.760;2024-01-10T06:31:25;-5.30;99.90
36816;DHT22;71982;52.294;6.760;2024-01-10T06:33:52;-5.30;99.90
36816;DHT22;71982;52.294;6.760;2024-01-10T06:36:19;-5.30;99.90
36816;DHT22;71982;52.294;6.760;2024-01-10T06:38:46;-5.30;99.90
36816;DHT22;71982;52.294;6.760;2024-01-10T06:41:13;-5.30;99.90
36816;DHT22;71982;52.294;6.760;2024-01-10T06:43:41;-5.40;99.90
36816;DHT22;71982;52.294;6.760;2024-01-10T06:46:09;-5.50;99.90
36816;DHT22;71982;52.294;6.760;2024-01-10T06:48:36;-5.60;99.90
36816;DHT22;71982;52.294;6.760;2024-01-10T06:51:03;-5.50;99.90
36816;DHT22;71982;52.294;6.760;2024-01-10T06:53:29;-5.60;99.90
36816;DHT22;71982;52.294;6.760;2024-01-10T06:55:56;-5.50;99.90
36816;DHT22;71982;52.294;6.760;2024-01-10T06:58:23;-5.50;99.90
36816;DHT22;71982;52.294;6.760;2024-01-10T07:00:51;-5.50;99.90
36816;DHT22;71982;52.294;6.760;2024-01-10T07:03:18;-5.40;99.90
36816;DHT22;71982;52.294;6.760;2024-01-10T07:05:44;-5.40;99.90
36816;DHT22;71982;52.294;6.760;2024-01-10T07:08:11;-5.40;99.90
36816;DHT22;71982;52.294;6.760;2024-01-10T07:10:38;-5.30;99.90
36816;DHT22;71982;52.294;6.760;2024-01-10T07:13:05;-5.30;99.90
36816;DHT22;71982;52.294;6.760;2024-01-10T07:15:32;-5.40;99.90
36816;DHT22;71982;52.294;6.760;2024-01-10T07:18:00;-5.30;99.90
36816;DHT22;71982;52.294;6.760;2024-01-10T07:20:27;-5.30;99.90
36816;DHT22;71982;52.294;6.760;2024-01-10T07:22:53;-5.30;99.90
36816;DHT22;71982;52.294;6.760;2024-01-10T07:25:20;-5.30;99.90
36816;DHT22;71982;52.294;6.760;2024-01-10T07:27:50;-5.30;99.90
36816;DHT22;71982;52.294;6.760;2024-01-10T07:30:17;-5.30;99.90
36816;DHT22;71982;52.294;6.760;2024-01-10T07:32:45;-5.30;99.90
36816;DHT22;71982;52.294;6.760;2024-01-10T07:35:13;-5.30;99.90
36816;DHT22;71982;52.294;6.760;2024-01-10T07:37:41;-5.30;99.90
36816;DHT22;71982;52.294;6.760;2024-01-10T07:40:08;-5.30;99.90
36816;DHT22;71982;52.294;6.760;2024-01-10T07:42:37;-5.30;99.90
36816;DHT22;71982;52.294;6.760;2024-01-10T07:45:06;-5.30;99.90
36816;DHT22;71982;52.294;6.760;2024-01-10T07:47:33;-5.30;99.90
36816;DHT22;71982;52.294;6.760;2024-01-10T07:50:04;-5.30;99.90
36816;DHT22;71982;52.294;6.760;2024-01-10T07:52:32;-5.20;99.90
36816;DHT22;71982;52.294;6.760;2024-01-10T07:54:59;-5.20;99.90
36816;DHT22;71982;52.294;6.760;2024-01-10T07:57:26;-5.10;99.90
36816;DHT22;71982;52.294;6.760;2024-01-10T07:59:52;-5.10;99.90
36816;DHT22;71982;52.294;6.760;2024-01-10T08:02:19;-5.10;99.90
36816;DHT22;71982;52.294;6.760;2024-01-10T08:04:46;-5.00;99.90
36816;DHT22;71982;52.294;6.760;2024-01-10T08:07:13;-5.00;99.90
36816;DHT22;71982;52.294;6.760;2024-01-10T08:09:41;-5.00;99.90
36816;DHT22;71982;52.294;6.760;2024-01-10T08:12:08;-5.00;99.90
36816;DHT22;71982;52.294;6.760;2024-01-10T08:14:36;-4.90;99.90
36816;DHT22;71982;52.294;6.760;2024-01-10T08:17:03;-4.90;99.90
36816;DHT22;71982;52.294;6.760;2024-01-10T08:19:30;-4.80;99.90
36816;DHT22;71982;52.294;6.760;2024-01-10T08:21:57;-4.70;99.90
36816;DHT22;71982;52.294;6.760;2024-01-10T08:24:23;-4.70;99.90
36816;DHT22;71982;52.294;6.760;2024-01-10T08:26:52;-4.70;99.90
36816;DHT22;71982;52.294;6.760;2024-01-10T08:29:19;-4.60;99.90
36816;DHT22;71982;52.294;6.760;2024-01-10T08:31:46;-4.60;99.90
36816;DHT22;71982;52.294;6.760;2024-01-10T08:34:13;-4.50;99.90
36816;DHT22;71982;52.294;6.760;2024-01-10T08:36:40;-4.40;99.90
36816;DHT22;71982;52.294;6.760;2024-01-10T08:39:07;-4.40;99.90
36816;DHT22;71982;52.294;6.760;2024-01-10T08:41:36;-4.40;99.90
36816;DHT22;71982;52.294;6.760;2024-01-10T08:44:09;-4.30;99.90
36816;DHT22;71982;52.294;6.760;2024-01-10T08:46:36;-4.20;99.90
36816;DHT22;71982;52.294;6.760;2024-01-10T08:49:03;-4.20;99.90
36816;DHT22;71982;52.294;6.760;2024-01-10T08:51:30;-4.20;99.90
36816;DHT22;71982;52.294;6.760;2024-01-10T08:53:57;-4.10;99.90
36816;DHT22;71982;52.294;6.760;2024-01-10T08:56:23;-4.10;99.90
36816;DHT22;71982;52.294;6.760;2024-01-10T08:58:51;-3.90;99.90
36816;DHT22;71982;52.294;6.760;2024-01-10T09:01:19;-3.60;99.90
36816;DHT22;71982;52.294;6.760;2024-01-10T09:03:46;-3.40;99.90
36816;DHT22;71982;52.294;6.760;2024-01-10T09:06:14;-3.10;99.90
36816;DHT22;71982;52.294;6.760;2024-01-10T09:08:42;-3.00;99.90
36816;DHT22;71982;52.294;6.760;2024-01-10T09:11:09;-2.90;99.90
36816;DHT22;71982;52.294;6.760;2024-01-10T09:13:36;-2.60;99.90
36816;DHT22;71982;52.294;6.760;2024-01-10T09:16:05;-2.60;99.90
36816;DHT22;71982;52.294;6.760;2024-01-10T09:18:33;-2.40;99.90
36816;DHT22;71982;52.294;6.760;2024-01-10T09:21:00;-2.60;99.90
36816;DHT22;71982;52.294;6.760;2024-01-10T09:23:27;-2.60;99.90
36816;DHT22;71982;52.294;6.760;2024-01-10T09:25:54;-2.40;99.90
36816;DHT22;71982;52.294;6.760;2024-01-10T09:28:21;-2.30;99.90
36816;DHT22;71982;52.294;6.760;2024-01-10T09:30:47;-2.00;99.90
36816;DHT22;71982;52.294;6.760;2024-01-10T09:33:14;-2.00;99.90
36816;DHT22;71982;52.294;6.760;2024-01-10T09:35:42;-2.00;99.90
36816;DHT22;71982;52.294;6.760;2024-01-10T09:38:09;-2.20;99.90
36816;DHT22;71982;52.294;6.760;2024-01-10T09:40:36;-2.50;99.90
36816;DHT22;71982;52.294;6.760;2024-01-10T09:43:04;-2.70;99.90
36816;DHT22;71982;52.294;6.760;2024-01-10T09:45:35;-2.70;99.90
36816;DHT22;71982;52.294;6.760;2024-01-10T09:48:03;-2.70;99.90
36816;DHT22;71982;52.294;6.760;2024-01-10T09:50:30;-2.70;99.90
36816;DHT22;71982;52.294;6.760;2024-01-10T09:53:05;-2.70;99.90
36816;DHT22;71982;52.294;6.760;2024-01-10T09:55:35;-2.60;99.90
36816;DHT22;71982;52.294;6.760;2024-01-10T09:58:03;-2.70;99.90
36816;DHT22;71982;52.294;6.760;2024-01-10T10:00:31;-2.60;99.90
36816;DHT22;71982;52.294;6.760;2024-01-10T10:03:02;-2.50;99.90
36816;DHT22;71982;52.294;6.760;2024-01-10T10:05:30;-2.40;99.90
36816;DHT22;71982;52.294;6.760;2024-01-10T10:08:01;-2.40;99.90
36816;DHT22;71982;52.294;6.760;2024-01-10T10:10:28;-2.30;99.90
36816;DHT22;71982;52.294;6.760;2024-01-10T10:12:55;-2.30;99.90
36816;DHT22;71982;52.294;6.760;2024-01-10T10:15:24;-2.30;99.90
36816;DHT22;71982;52.294;6.760;2024-01-10T10:17:52;-2.30;99.90
36816;DHT22;71982;52.294;6.760;2024-01-10T10:20:21;-2.10;99.90
36816;DHT22;71982;52.294;6.760;2024-01-10T10:22:59;-2.00;99.90
36816;DHT22;71982;52.294;6.760;2024-01-10T10:25:32;-2.10;99.90
36816;DHT22;71982;52.294;6.760;2024-01-10T10:27:59;-2.00;99.90
36816;DHT22;71982;52.294;6.760;2024-01-10T10:30:26;-2.00;99.90
36816;DHT22;71982;52.294;6.760;2024-01-10T10:32:54;-1.90;99.90
36816;DHT22;71982;52.294;6.760;2024-01-10T10:35:21;-1.90;99.90
36816;DHT22;71982;52.294;6.760;2024-01-10T10:37:49;-1.70;99.90
36816;DHT22;71982;52.294;6.760;2024-01-10T10:40:16;-1.70;99.90
36816;DHT22;71982;52.294;6.760;2024-01-10T10:42:46;-1.70;99.90
36816;DHT22;71982;52.294;6.760;2024-01-10T10:45:15;-1.70;99.90
36816;DHT22;71982;52.294;6.760;2024-01-10T10:47:43;-1.60;99.90
36816;DHT22;71982;52.294;6.760;2024-01-10T10:50:13;-1.40;99.90
36816;DHT22;71982;52.294;6.760;2024-01-10T10:52:42;-1.30;99.90
36816;DHT22;71982;52.294;6.760;2024-01-10T10:55:14;-1.30;99.80
36816;DHT22;71982;52.294;6.760;2024-01-10T10:57:43;-1.30;99.70
36816;DHT22;71982;52.294;6.760;2024-01-10T11:00:13;-1.20;99.30
36816;DHT22;71982;52.294;6.760;2024-01-10T11:02:42;-1.20;99.80
36816;DHT22;71982;52.294;6.760;2024-01-10T11:05:09;-1.10;99.20
36816;DHT22;71982;52.294;6.760;2024-01-10T11:07:37;-1.10;99.40
36816;DHT22;71982;52.294;6.760;2024-01-10T11:10:06;-0.80;99.30
36816;DHT22;71982;52.294;6.760;2024-01-10T11:12:51;-0.70;98.80
36816;DHT22;71982;52.294;6.760;2024-01-10T11:15:31;-0.60;99.10
36816;DHT22;71982;52.294;6.760;2024-01-10T11:18:21;-0.50;98.60
36816;DHT22;71982;52.294;6.760;2024-01-10T11:21:15;-0.50;98.80
36816;DHT22;71982;52.294;6.760;2024-01-10T11:23:47;-0.50;98.10
36816;DHT22;71982;52.294;6.760;2024-01-10T11:26:15;-0.50;98.10
36816;DHT22;71982;52.294;6.760;2024-01-10T11:28:42;-0.30;98.60
36816;DHT22;71982;52.294;6.760;2024-01-10T11:31:10;-0.20;98.10
36816;DHT22;71982;52.294;6.760;2024-01-10T11:33:41;0.00;97.80
36816;DHT22;71982;52.294;6.760;2024-01-10T11:36:11;0.10;97.90
36816;DHT22;71982;52.294;6.760;2024-01-10T11:38:42;0.20;97.10
36816;DHT22;71982;52.294;6.760;2024-01-10T11:41:20;0.60;96.60
36816;DHT22;71982;52.294;6.760;2024-01-10T11:44:25;0.90;96.40
36816;DHT22;71982;52.294;6.760;2024-01-10T11:46:54;0.90;96.10
36816;DHT22;71982;52.294;6.760;2024-01-10T11:49:23;1.70;95.70
36816;DHT22;71982;52.294;6.760;2024-01-10T11:51:53;1.30;95.60
36816;DHT22;71982;52.294;6.760;2024-01-10T11:54:39;1.30;95.20
36816;DHT22;71982;52.294;6.760;2024-01-10T11:57:20;1.30;95.30
36816;DHT22;71982;52.294;6.760;2024-01-10T11:59:49;1.90;94.90
36816;DHT22;71982;52.294;6.760;2024-01-10T12:02:18;2.00;94.50
36816;DHT22;71982;52.294;6.760;2024-01-10T12:04:45;2.20;94.10
36816;DHT22;71982;52.294;6.760;2024-01-10T12:07:12;2.30;94.10
36816;DHT22;71982;52.294;6.760;2024-01-10T12:09:40;2.50;93.80
36816;DHT22;71982;52.294;6.760;2024-01-10T12:12:07;3.20;93.30
36816;DHT22;71982;52.294;6.760;2024-01-10T12:14:34;3.10;93.20
36816;DHT22;71982;52.294;6.760;2024-01-10T12:17:02;2.90;93.10
36816;DHT22;71982;52.294;6.760;2024-01-10T12:19:31;3.40;92.70
36816;DHT22;71982;52.294;6.760;2024-01-10T12:21:58;4.10;92.70
36816;DHT22;71982;52.294;6.760;2024-01-10T12:24:27;4.00;92.70
36816;DHT22;71982;52.294;6.760;2024-01-10T12:26:55;4.70;91.40
36816;DHT22;71982;52.294;6.760;2024-01-10T12:29:23;4.80;91.50
36816;DHT22;71982;52.294;6.760;2024-01-10T12:31:50;4.60;91.50
36816;DHT22;71982;52.294;6.760;2024-01-10T12:34:17;4.80;91.20
36816;DHT22;71982;52.294;6.760;2024-01-10T12:36:45;5.00;91.10
36816;DHT22;71982;52.294;6.760;2024-01-10T12:39:13;5.00;91.30
36816;DHT22;71982;52.294;6.760;2024-01-10T12:41:41;4.90;90.90
36816;DHT22;71982;52.294;6.760;2024-01-10T12:44:07;4.60;90.80
36816;DHT22;71982;52.294;6.760;2024-01-10T12:46:34;4.90;91.40
36816;DHT22;71982;52.294;6.760;2024-01-10T12:49:02;5.20;90.90
36816;DHT22;71982;52.294;6.760;2024-01-10T12:51:31;5.40;90.90
36816;DHT22;71982;52.294;6.760;2024-01-10T12:54:00;4.50;91.30
36816;DHT22;71982;52.294;6.760;2024-01-10T12:56:27;4.90;90.70
36816;DHT22;71982;52.294;6.760;2024-01-10T12:58:54;4.70;91.30
36816;DHT22;71982;52.294;6.760;2024-01-10T13:01:21;4.70;90.60
36816;DHT22;71982;52.294;6.760;2024-01-10T13:03:47;4.60;90.80
36816;DHT22;71982;52.294;6.760;2024-01-10T13:06:15;4.50;91.10
36816;DHT22;71982;52.294;6.760;2024-01-10T13:08:43;5.20;90.50
36816;DHT22;71982;52.294;6.760;2024-01-10T13:11:11;5.40;90.40
36816;DHT22;71982;52.294;6.760;2024-01-10T13:13:39;5.90;90.20
36816;DHT22;71982;52.294;6.760;2024-01-10T13:16:06;5.40;90.10
36816;DHT22;71982;52.294;6.760;2024-01-10T13:18:36;5.90;90.40
36816;DHT22;71982;52.294;6.760;2024-01-10T13:21:03;5.70;90.10
36816;DHT22;71982;52.294;6.760;2024-01-10T13:23:29;5.90;90.30
36816;DHT22;71982;52.294;6.760;2024-01-10T13:25:56;5.80;90.00
36816;DHT22;71982;52.294;6.760;2024-01-10T13:28:26;6.10;89.90
36816;DHT22;71982;52.294;6.760;2024-01-10T13:30:53;5.70;89.60
36816;DHT22;71982;52.294;6.760;2024-01-10T13:33:22;5.10;90.30
36816;DHT22;71982;52.294;6.760;2024-01-10T13:35:51;5.30;90.40
36816;DHT22;71982;52.294;6.760;2024-01-10T13:38:17;5.60;89.90
36816;DHT22;71982;52.294;6.760;2024-01-10T13:40:44;5.30;89.40
36816;DHT22;71982;52.294;6.760;2024-01-10T13:43:11;5.10;90.40
36816;DHT22;71982;52.294;6.760;2024-01-10T13:45:39;5.40;90.20
36816;DHT22;71982;52.294;6.760;2024-01-10T13:48:06;5.00;90.00
36816;DHT22;71982;52.294;6.760;2024-01-10T13:50:33;5.00;90.00
36816;DHT22;71982;52.294;6.760;2024-01-10T13:53:00;4.80;90.30
36816;DHT22;71982;52.294;6.760;2024-01-10T13:55:28;4.90;90.10
36816;DHT22;71982;52.294;6.760;2024-01-10T13:57:55;4.40;90.60
36816;DHT22;71982;52.294;6.760;2024-01-10T14:00:22;4.40;90.20
36816;DHT22;71982;52.294;6.760;2024-01-10T14:02:50;4.50;90.50
36816;DHT22;71982;52.294;6.760;2024-01-10T14:05:20;4.30;90.60
36816;DHT22;71982;52.294;6.760;2024-01-10T14:07:47;4.20;91.10
36816;DHT22;71982;52.294;6.760;2024-01-10T14:10:14;4.00;90.50
36816;DHT22;71982;52.294;6.760;2024-01-10T14:12:40;3.90;90.40
36816;DHT22;71982;52.294;6.760;2024-01-10T14:15:08;4.00;90.50
36816;DHT22;71982;52.294;6.760;2024-01-10T14:17:35;3.90;90.40
36816;DHT22;71982;52.294;6.760;2024-01-10T14:20:04;4.00;90.50
36816;DHT22;71982;52.294;6.760;2024-01-10T14:22:34;4.20;90.40
36816;DHT22;71982;52.294;6.760;2024-01-10T14:25:01;3.80;90.60
36816;DHT22;71982;52.294;6.760;2024-01-10T14:27:28;3.80;90.70
36816;DHT22;71982;52.294;6.760;2024-01-10T14:29:55;4.10;90.40
36816;DHT22;71982;52.294;6.760;2024-01-10T14:32:21;4.20;90.50
36816;DHT22;71982;52.294;6.760;2024-01-10T14:34:48;3.50;90.40
36816;DHT22;71982;52.294;6.760;2024-01-10T14:37:16;3.30;90.60
36816;DHT22;71982;52.294;6.760;2024-01-10T14:39:43;3.00;90.60
36816;DHT22;71982;52.294;6.760;2024-01-10T14:42:10;2.90;90.60
36816;DHT22;71982;52.294;6.760;2024-01-10T14:44:37;2.80;91.20
36816;DHT22;71982;52.294;6.760;2024-01-10T14:47:04;2.40;91.30
36816;DHT22;71982;52.294;6.760;2024-01-10T14:49:30;2.10;91.90
36816;DHT22;71982;52.294;6.760;2024-01-10T14:51:57;1.50;92.20
36816;DHT22;71982;52.294;6.760;2024-01-10T14:54:26;1.30;92.60
36816;DHT22;71982;52.294;6.760;2024-01-10T14:56:52;1.10;93.00
36816;DHT22;71982;52.294;6.760;2024-01-10T14:59:19;0.90;93.40
36816;DHT22;71982;52.294;6.760;2024-01-10T15:01:46;0.70;93.80
36816;DHT22;71982;52.294;6.760;2024-01-10T15:04:13;0.50;93.80
36816;DHT22;71982;52.294;6.760;2024-01-10T15:06:44;0.30;94.50
36816;DHT22;71982;52.294;6.760;2024-01-10T15:09:11;0.10;94.70
36816;DHT22;71982;52.294;6.760;2024-01-10T15:11:39;0.00;94.70
36816;DHT22;71982;52.294;6.760;2024-01-10T15:14:07;0.00;95.00
36816;DHT22;71982;52.294;6.760;2024-01-10T15:16:34;-0.20;95.50
36816;DHT22;71982;52.294;6.760;2024-01-10T15:19:01;-0.20;95.00
36816;DHT22;71982;52.294;6.760;2024-01-10T15:21:28;-0.40;95.80
36816;DHT22;71982;52.294;6.760;2024-01-10T15:23:55;-0.50;96.00
36816;DHT22;71982;52.294;6.760;2024-01-10T15:26:22;-0.60;96.10
36816;DHT22;71982;52.294;6.760;2024-01-10T15:28:50;-0.70;96.40
36816;DHT22;71982;52.294;6.760;2024-01-10T15:31:19;-0.80;96.60
36816;DHT22;71982;52.294;6.760;2024-01-10T15:33:46;-0.80;97.00
36816;DHT22;71982;52.294;6.760;2024-01-10T15:36:14;-0.80;97.00
36816;DHT22;71982;52.294;6.760;2024-01-10T15:38:41;-0.80;97.30